sensor_id;sensor_type;location;lat;lon;timestamp;temperature;humidity
43087;DHT22;28708;52.224;6.924;2023-06-04T00:01:09;13.50;97.10
43087;DHT22;28708;52.224;6.924;2023-06-04T00:03:35;13.60;97.60
43087;DHT22;28708;52.224;6.924;2023-06-04T00:06:01;13.50;98.70
43087;DHT22;28708;52.224;6.924;2023-06-04T00:08:26;13.50;99.00
43087;DHT22;28708;52.224;6.924;2023-06-04T00:10:52;13.40;99.30
43087;DHT22;28708;52.224;6.924;2023-06-04T00:13:18;13.40;99.90
43087;DHT22;28708;52.224;6.924;2023-06-04T00:15:44;13.30;99.90
43087;DHT22;28708;52.224;6.924;2023-06-04T00:18:09;13.30;99.90
43087;DHT22;28708;52.224;6.924;2023-06-04T00:20:36;13.30;99.90
43087;DHT22;28708;52.224;6.924;2023-06-04T00:23:02;13.30;99.90
43087;DHT22;28708;52.224;6.924;2023-06-04T00:25:28;13.30;99.90
43087;DHT22;28708;52.224;6.924;2023-06-04T00:27:54;13.30;99.90
43087;DHT22;28708;52.224;6.924;2023-06-04T00:30:19;13.30;99.90
43087;DHT22;28708;52.224;6.924;2023-06-04T00:32:45;13.20;99.90
43087;DHT22;28708;52.224;6.924;2023-06-04T00:35:12;13.00;99.90
43087;DHT22;28708;52.224;6.924;2023-06-04T00:37:38;13.00;99.90
43087;DHT22;28708;52.224;6.924;2023-06-04T00:40:05;13.10;99.90
43087;DHT22;28708;52.224;6.924;2023-06-04T00:42:31;13.00;99.90
43087;DHT22;28708;52.224;6.924;2023-06-04T00:44:57;12.90;99.90
43087;DHT22;28708;52.224;6.924;2023-06-04T00:47:24;13.00;99.90
43087;DHT22;28708;52.224;6.924;2023-06-04T00:49:50;13.00;99.90
43087;DHT22;28708;52.224;6.924;2023-06-04T00:52:16;13.00;99.90
43087;DHT22;28708;52.224;6.924;2023-06-04T00:54:42;13.00;99.90
43087;DHT22;28708;52.224;6.924;2023-06-04T00:57:08;12.90;99.90
43087;DHT22;28708;52.224;6.924;2023-06-04T00:59:36;13.00;99.90
43087;DHT22;28708;52.224;6.924;2023-06-04T01:02:12;12.90;99.90
43087;DHT22;28708;52.224;6.924;2023-06-04T01:07:44;12.90;99.90
43087;DHT22;28708;52.224;6.924;2023-06-04T01:10:13;12.90;99.90
43087;DHT22;28708;52.224;6.924;2023-06-04T01:12:40;12.80;99.90
43087;DHT22;28708;52.224;6.924;2023-06-04T01:15:06;12.80;99.90
43087;DHT22;28708;52.224;6.924;2023-06-04T01:17:38;12.80;99.90
43087;DHT22;28708;52.224;6.924;2023-06-04T01:26:11;12.70;99.90
43087;DHT22;28708;52.224;6.924;2023-06-04T01:28:38;12.60;99.90
43087;DHT22;28708;52.224;6.924;2023-06-04T01:31:05;12.70;99.90
43087;DHT22;28708;52.224;6.924;2023-06-04T01:33:33;12.60;99.90
43087;DHT22;28708;52.224;6.924;2023-06-04T01:35:59;12.60;99.90
43087;DHT22;28708;52.224;6.924;2023-06-04T01:38:26;12.60;99.90
43087;DHT22;28708;52.224;6.924;2023-06-04T01:40:52;12.60;99.90
43087;DHT22;28708;52.224;6.924;2023-06-04T01:43:22;12.60;99.90
43087;DHT22;28708;52.224;6.924;2023-06-04T01:45:48;12.50;99.90
43087;DHT22;28708;52.224;6.924;2023-06-04T01:48:14;12.50;99.90
43087;DHT22;28708;52.224;6.924;2023-06-04T01:50:39;12.60;99.90
43087;DHT22;28708;52.224;6.924;2023-06-04T01:53:05;12.50;99.90
43087;DHT22;28708;52.224;6.924;2023-06-04T01:55:31;12.50;99.90
43087;DHT22;28708;52.224;6.924;2023-06-04T01:57:59;12.50;99.90
43087;DHT22;28708;52.224;6.924;2023-06-04T02:00:26;12.30;99.90
43087;DHT22;28708;52.224;6.924;2023-06-04T02:02:51;12.30;99.90
43087;DHT22;28708;52.224;6.924;2023-06-04T02:05:18;12.30;99.90
43087;DHT22;28708;52.224;6.924;2023-06-04T02:07:45;12.20;99.90
43087;DHT22;28708;52.224;6.924;2023-06-04T02:10:16;12.30;99.90
43087;DHT22;28708;52.224;6.924;2023-06-04T02:13:02;12.20;99.90
43087;DHT22;28708;52.224;6.924;2023-06-04T02:15:30;12.10;99.90
43087;DHT22;28708;52.224;6.924;2023-06-04T02:17:58;12.10;99.90
43087;DHT22;28708;52.224;6.924;2023-06-04T02:20:26;12.10;99.90
43087;DHT22;28708;52.224;6.924;2023-06-04T02:22:53;12.10;99.90
43087;DHT22;28708;52.224;6.924;2023-06-04T02:25:18;12.10;99.90
43087;DHT22;28708;52.224;6.924;2023-06-04T02:27:44;12.00;99.90
43087;DHT22;28708;52.224;6.924;2023-06-04T02:30:10;11.90;99.90
43087;DHT22;28708;52.224;6.924;2023-06-04T02:32:36;12.00;99.90
43087;DHT22;28708;52.224;6.924;2023-06-04T02:35:02;11.90;99.90
43087;DHT22;28708;52.224;6.924;2023-06-04T02:37:29;11.80;99.90
43087;DHT22;28708;52.224;6.924;2023-06-04T02:39:55;11.80;99.90
43087;DHT22;28708;52.224;6.924;2023-06-04T02:42:21;11.80;99.90
43087;DHT22;28708;52.224;6.924;2023-06-04T02:44:47;11.80;99.90
43087;DHT22;28708;52.224;6.924;2023-06-04T02:47:13;11.80;99.90
43087;DHT22;28708;52.224;6.924;2023-06-04T02:49:38;11.80;99.90
43087;DHT22;28708;52.224;6.924;2023-06-04T02:52:04;11.70;99.90
43087;DHT22;28708;52.224;6.924;2023-06-04T02:54:30;11.60;99.90
43087;DHT22;28708;52.224;6.924;2023-06-04T02:56:56;11.60;99.90
43087;DHT22;28708;52.224;6.924;2023-06-04T02:59:22;11.70;99.90
43087;DHT22;28708;52.224;6.924;2023-06-04T03:01:48;11.60;99.90
43087;DHT22;28708;52.224;6.924;2023-06-04T03:04:13;11.60;99.90
43087;DHT22;28708;52.224;6.924;2023-06-04T03:06:41;11.60;99.90
43087;DHT22;28708;52.224;6.924;2023-06-04T03:09:10;11.70;99.90
43087;DHT22;28708;52.224;6.924;2023-06-04T03:11:36;11.70;99.90
43087;DHT22;28708;52.224;6.924;2023-06-04T03:14:02;11.60;99.90
43087;DHT22;28708;52.224;6.924;2023-06-04T03:16:28;11.60;99.90
43087;DHT22;28708;52.224;6.924;2023-06-04T03:18:53;11.60;99.90
43087;DHT22;28708;52.224;6.924;2023-06-04T03:21:19;11.50;99.90
43087;DHT22;28708;52.224;6.924;2023-06-04T03:23:45;11.50;99.90
43087;DHT22;28708;52.224;6.924;2023-06-04T03:26:11;11.40;99.90
43087;DHT22;28708;52.224;6.924;2023-06-04T03:28:38;11.40;99.90
43087;DHT22;28708;52.224;6.924;2023-06-04T03:31:04;11.60;99.90
43087;DHT22;28708;52.224;6.924;2023-06-04T03:33:30;11.50;99.90
43087;DHT22;28708;52.224;6.924;2023-06-04T03:35:56;11.60;99.90
43087;DHT22;28708;52.224;6.924;2023-06-04T03:38:25;11.50;99.90
43087;DHT22;28708;52.224;6.924;2023-06-04T03:40:51;11.40;99.90
43087;DHT22;28708;52.224;6.924;2023-06-04T03:43:22;11.40;99.90
43087;DHT22;28708;52.224;6.924;2023-06-04T03:45:50;11.50;99.90
43087;DHT22;28708;52.224;6.924;2023-06-04T03:48:17;11.50;99.90
43087;DHT22;28708;52.224;6.924;2023-06-04T03:50:43;11.40;99.90
43087;DHT22;28708;52.224;6.924;2023-06-04T03:53:11;11.40;99.90
43087;DHT22;28708;52.224;6.924;2023-06-04T03:55:37;11.50;99.90
43087;DHT22;28708;52.224;6.924;2023-06-04T03:58:05;11.50;99.90
43087;DHT22;28708;52.224;6.924;2023-06-04T04:00:32;11.40;99.90
43087;DHT22;28708;52.224;6.924;2023-06-04T04:03:00;11.30;99.90
43087;DHT22;28708;52.224;6.924;2023-06-04T04:05:28;11.40;99.90
43087;DHT22;28708;52.224;6.924;2023-06-04T04:07:54;11.40;99.90
43087;DHT22;28708;52.224;6.924;2023-06-04T04:10:24;11.40;99.90
43087;DHT22;28708;52.224;6.924;2023-06-04T04:12:50;11.40;99.90
43087;DHT22;28708;52.224;6.924;2023-06-04T04:15:19;11.40;99.90
43087;DHT22;28708;52.224;6.924;2023-06-04T04:17:45;11.40;99.90
43087;DHT22;28708;52.224;6.924;2023-06-04T04:20:11;11.40;99.90
43087;DHT22;28708;52.224;6.924;2023-06-04T04:22:42;11.40;99.90
43087;DHT22;28708;52.224;6.924;2023-06-04T04:25:09;11.40;99.90
43087;DHT22;28708;52.224;6.924;2023-06-04T04:27:35;11.40;99.90
43087;DHT22;28708;52.224;6.924;2023-06-04T04:30:07;11.50;99.90
43087;DHT22;28708;52.224;6.924;2023-06-04T04:32:33;11.60;99.90
43087;DHT22;28708;52.224;6.924;2023-06-04T04:34:58;11.50;99.90
43087;DHT22;28708;52.224;6.924;2023-06-04T04:37:31;11.50;99.90
43087;DHT22;28708;52.224;6.924;2023-06-04T04:39:57;11.50;99.90
43087;DHT22;28708;52.224;6.924;2023-06-04T04:42:25;11.60;99.90
43087;DHT22;28708;52.224;6.924;2023-06-04T04:44:51;11.70;99.90
43087;DHT22;28708;52.224;6.924;2023-06-04T04:47:20;11.70;99.90
43087;DHT22;28708;52.224;6.924;2023-06-04T04:49:46;11.80;99.90
43087;DHT22;28708;52.224;6.924;2023-06-04T04:52:12;11.80;99.90
43087;DHT22;28708;52.224;6.924;2023-06-04T04:54:40;11.80;99.90
43087;DHT22;28708;52.224;6.924;2023-06-04T04:57:06;11.90;99.90
43087;DHT22;28708;52.224;6.924;2023-06-04T04:59:34;11.80;99.90
43087;DHT22;28708;52.224;6.924;2023-06-04T05:02:00;11.90;99.90
43087;DHT22;28708;52.224;6.924;2023-06-04T05:04:25;11.90;99.90
43087;DHT22;28708;52.224;6.924;2023-06-04T05:06:51;11.90;99.90
43087;DHT22;28708;52.224;6.924;2023-06-04T05:09:17;11.90;99.90
43087;DHT22;28708;52.224;6.924;2023-06-04T05:11:44;12.00;99.90
43087;DHT22;28708;52.224;6.924;2023-06-04T05:14:10;12.00;99.90
43087;DHT22;28708;52.224;6.924;2023-06-04T05:16:37;12.10;99.90
43087;DHT22;28708;52.224;6.924;2023-06-04T05:19:04;12.10;99.90
43087;DHT22;28708;52.224;6.924;2023-06-04T05:21:33;12.10;99.90
43087;DHT22;28708;52.224;6.924;2023-06-04T05:24:03;12.10;99.90
43087;DHT22;28708;52.224;6.924;2023-06-04T05:26:33;12.10;99.90
43087;DHT22;28708;52.224;6.924;2023-06-04T05:29:04;12.20;99.90
43087;DHT22;28708;52.224;6.924;2023-06-04T05:31:33;12.20;99.90
43087;DHT22;28708;52.224;6.924;2023-06-04T05:34:01;12.30;99.90
43087;DHT22;28708;52.224;6.924;2023-06-04T05:36:30;12.30;99.90
43087;DHT22;28708;52.224;6.924;2023-06-04T05:38:59;12.30;99.90
43087;DHT22;28708;52.224;6.924;2023-06-04T05:41:31;12.40;99.90
43087;DHT22;28708;52.224;6.924;2023-06-04T05:43:57;12.50;99.90
43087;DHT22;28708;52.224;6.924;2023-06-04T05:46:23;12.50;99.90
43087;DHT22;28708;52.224;6.924;2023-06-04T05:48:49;12.70;99.90
43087;DHT22;28708;52.224;6.924;2023-06-04T05:51:16;12.70;99.90
43087;DHT22;28708;52.224;6.924;2023-06-04T05:53:43;12.80;99.90
43087;DHT22;28708;52.224;6.924;2023-06-04T05:56:08;12.80;99.90
43087;DHT22;28708;52.224;6.924;2023-06-04T05:58:34;12.90;99.90
43087;DHT22;28708;52.224;6.924;2023-06-04T06:01:00;13.10;99.90
43087;DHT22;28708;52.224;6.924;2023-06-04T06:03:27;13.10;99.90
43087;DHT22;28708;52.224;6.924;2023-06-04T06:05:53;13.20;99.90
43087;DHT22;28708;52.224;6.924;2023-06-04T06:08:21;13.30;99.90
43087;DHT22;28708;52.224;6.924;2023-06-04T06:10:47;13.30;99.90
43087;DHT22;28708;52.224;6.924;2023-06-04T06:13:13;13.40;99.90
43087;DHT22;28708;52.224;6.924;2023-06-04T06:15:39;13.40;99.90
43087;DHT22;28708;52.224;6.924;2023-06-04T06:18:05;13.50;99.90
43087;DHT22;28708;52.224;6.924;2023-06-04T06:20:30;13.60;99.90
43087;DHT22;28708;52.224;6.924;2023-06-04T06:22:57;13.70;99.90
43087;DHT22;28708;52.224;6.924;2023-06-04T06:25:24;13.80;99.90
43087;DHT22;28708;52.224;6.924;2023-06-04T06:28:01;13.80;99.90
43087;DHT22;28708;52.224;6.924;2023-06-04T06:30:28;13.90;99.90
43087;DHT22;28708;52.224;6.924;2023-06-04T06:32:53;14.00;99.90
43087;DHT22;28708;52.224;6.924;2023-06-04T06:35:19;14.10;99.90
43087;DHT22;28708;52.224;6.924;2023-06-04T06:37:45;14.10;99.90
43087;DHT22;28708;52.224;6.924;2023-06-04T06:40:10;14.20;99.90
43087;DHT22;28708;52.224;6.924;2023-06-04T06:42:36;14.30;99.90
43087;DHT22;28708;52.224;6.924;2023-06-04T06:45:02;14.30;99.90
43087;DHT22;28708;52.224;6.924;2023-06-04T06:47:28;14.40;99.90
43087;DHT22;28708;52.224;6.924;2023-06-04T06:49:53;14.50;99.90
43087;DHT22;28708;52.224;6.924;2023-06-04T06:52:20;14.60;99.90
43087;DHT22;28708;52.224;6.924;2023-06-04T06:54:46;14.70;99.90
43087;DHT22;28708;52.224;6.924;2023-06-04T06:57:12;14.80;99.90
43087;DHT22;28708;52.224;6.924;2023-06-04T06:59:37;14.90;99.90
43087;DHT22;28708;52.224;6.924;2023-06-04T07:02:04;15.00;99.90
43087;DHT22;28708;52.224;6.924;2023-06-04T07:04:30;15.00;99.90
43087;DHT22;28708;52.224;6.924;2023-06-04T07:06:56;15.10;99.90
43087;DHT22;28708;52.224;6.924;2023-06-04T07:09:21;15.10;99.90
43087;DHT22;28708;52.224;6.924;2023-06-04T07:11:47;15.20;99.90
43087;DHT22;28708;52.224;6.924;2023-06-04T07:14:12;15.30;99.90
43087;DHT22;28708;52.224;6.924;2023-06-04T07:16:38;15.40;99.90
43087;DHT22;28708;52.224;6.924;2023-06-04T07:19:04;15.50;99.90
43087;DHT22;28708;52.224;6.924;2023-06-04T07:21:29;15.60;99.90
43087;DHT22;28708;52.224;6.924;2023-06-04T07:23:55;15.60;99.90
43087;DHT22;28708;52.224;6.924;2023-06-04T07:26:21;15.70;99.90
43087;DHT22;28708;52.224;6.924;2023-06-04T07:28:47;15.70;99.90
43087;DHT22;28708;52.224;6.924;2023-06-04T07:31:16;15.80;99.90
43087;DHT22;28708;52.224;6.924;2023-06-04T07:33:42;15.90;99.90
43087;DHT22;28708;52.224;6.924;2023-06-04T07:36:15;16.10;99.90
43087;DHT22;28708;52.224;6.924;2023-06-04T07:38:42;16.10;99.90
43087;DHT22;28708;52.224;6.924;2023-06-04T07:41:08;16.20;99.90
43087;DHT22;28708;52.224;6.924;2023-06-04T07:43:34;16.40;99.90
43087;DHT22;28708;52.224;6.924;2023-06-04T07:46:01;16.50;99.90
43087;DHT22;28708;52.224;6.924;2023-06-04T07:48:27;16.60;99.90
43087;DHT22;28708;52.224;6.924;2023-06-04T07:51:00;16.50;99.90
43087;DHT22;28708;52.224;6.924;2023-06-04T07:53:26;16.70;99.90
43087;DHT22;28708;52.224;6.924;2023-06-04T07:55:52;16.80;99.90
43087;DHT22;28708;52.224;6.924;2023-06-04T07:58:18;16.90;99.90
43087;DHT22;28708;52.224;6.924;2023-06-04T08:00:44;16.90;99.90
43087;DHT22;28708;52.224;6.924;2023-06-04T08:03:10;17.10;99.90
43087;DHT22;28708;52.224;6.924;2023-06-04T08:05:36;17.20;99.90
43087;DHT22;28708;52.224;6.924;2023-06-04T08:08:01;17.30;99.90
43087;DHT22;28708;52.224;6.924;2023-06-04T08:10:29;17.60;99.90
43087;DHT22;28708;52.224;6.924;2023-06-04T08:12:56;18.00;99.90
43087;DHT22;28708;52.224;6.924;2023-06-04T08:15:21;18.50;99.90
43087;DHT22;28708;52.224;6.924;2023-06-04T08:17:47;19.30;99.90
43087;DHT22;28708;52.224;6.924;2023-06-04T08:20:13;19.90;99.90
43087;DHT22;28708;52.224;6.924;2023-06-04T08:22:39;21.40;99.90
43087;DHT22;28708;52.224;6.924;2023-06-04T08:25:06;22.80;96.10
43087;DHT22;28708;52.224;6.924;2023-06-04T08:27:32;23.20;93.90
43087;DHT22;28708;52.224;6.924;2023-06-04T08:29:58;23.40;91.00
43087;DHT22;28708;52.224;6.924;2023-06-04T08:32:24;24.80;79.70
43087;DHT22;28708;52.224;6.924;2023-06-04T08:34:50;24.20;79.60
43087;DHT22;28708;52.224;6.924;2023-06-04T08:37:18;24.90;76.30
43087;DHT22;28708;52.224;6.924;2023-06-04T08:39:44;25.30;73.70
43087;DHT22;28708;52.224;6.924;2023-06-04T08:42:18;25.60;71.90
43087;DHT22;28708;52.224;6.924;2023-06-04T08:44:50;25.00;72.40
43087;DHT22;28708;52.224;6.924;2023-06-04T08:47:19;26.00;70.10
43087;DHT22;28708;52.224;6.924;2023-06-04T08:49:50;26.20;66.00
43087;DHT22;28708;52.224;6.924;2023-06-04T08:52:16;26.50;65.40
43087;DHT22;28708;52.224;6.924;2023-06-04T08:54:43;26.20;66.20
43087;DHT22;28708;52.224;6.924;2023-06-04T08:57:09;26.40;64.80
43087;DHT22;28708;52.224;6.924;2023-06-04T08:59:35;25.10;62.10
43087;DHT22;28708;52.224;6.924;2023-06-04T09:02:02;26.00;63.60
43087;DHT22;28708;52.224;6.924;2023-06-04T09:04:29;26.00;63.20
43087;DHT22;28708;52.224;6.924;2023-06-04T09:07:01;26.00;63.00
43087;DHT22;28708;52.224;6.924;2023-06-04T09:09:28;25.50;61.80
43087;DHT22;28708;52.224;6.924;2023-06-04T09:11:56;26.50;61.40
43087;DHT22;28708;52.224;6.924;2023-06-04T09:14:23;26.80;60.80
43087;DHT22;28708;52.224;6.924;2023-06-04T09:16:50;27.30;59.00
43087;DHT22;28708;52.224;6.924;2023-06-04T09:19:18;27.40;58.00
43087;DHT22;28708;52.224;6.924;2023-06-04T09:22:00;26.90;57.20
43087;DHT22;28708;52.224;6.924;2023-06-04T09:27:15;26.40;54.70
43087;DHT22;28708;52.224;6.924;2023-06-04T09:29:52;26.60;58.10
43087;DHT22;28708;52.224;6.924;2023-06-04T09:32:29;27.00;56.20
43087;DHT22;28708;52.224;6.924;2023-06-04T09:35:07;28.00;56.00
43087;DHT22;28708;52.224;6.924;2023-06-04T09:37:34;28.20;55.50
43087;DHT22;28708;52.224;6.924;2023-06-04T09:40:00;27.70;55.30
43087;DHT22;28708;52.224;6.924;2023-06-04T09:42:26;28.00;54.70
43087;DHT22;28708;52.224;6.924;2023-06-04T09:44:52;28.30;53.00
43087;DHT22;28708;52.224;6.924;2023-06-04T09:47:18;28.40;53.60
43087;DHT22;28708;52.224;6.924;2023-06-04T09:49:45;28.20;52.50
43087;DHT22;28708;52.224;6.924;2023-06-04T09:52:11;28.00;53.30
43087;DHT22;28708;52.224;6.924;2023-06-04T09:54:39;27.90;52.80
43087;DHT22;28708;52.224;6.924;2023-06-04T09:57:15;27.80;52.30
43087;DHT22;28708;52.224;6.924;2023-06-04T09:59:46;27.90;50.00
43087;DHT22;28708;52.224;6.924;2023-06-04T10:02:19;27.80;52.40
43087;DHT22;28708;52.224;6.924;2023-06-04T10:04:52;27.80;51.70
43087;DHT22;28708;52.224;6.924;2023-06-04T10:07:19;28.30;51.70
43087;DHT22;28708;52.224;6.924;2023-06-04T10:09:47;28.60;51.70
43087;DHT22;28708;52.224;6.924;2023-06-04T10:12:16;28.50;51.50
43087;DHT22;28708;52.224;6.924;2023-06-04T10:15:21;28.80;52.20
43087;DHT22;28708;52.224;6.924;2023-06-04T10:17:48;29.30;51.70
43087;DHT22;28708;52.224;6.924;2023-06-04T10:20:15;29.00;51.20
43087;DHT22;28708;52.224;6.924;2023-06-04T10:22:42;29.30;50.00
43087;DHT22;28708;52.224;6.924;2023-06-04T10:25:09;29.00;49.80
43087;DHT22;28708;52.224;6.924;2023-06-04T10:27:35;28.40;50.30
43087;DHT22;28708;52.224;6.924;2023-06-04T10:30:04;27.90;51.20
43087;DHT22;28708;52.224;6.924;2023-06-04T10:32:30;27.10;51.10
43087;DHT22;28708;52.224;6.924;2023-06-04T10:34:57;27.30;52.70
43087;DHT22;28708;52.224;6.924;2023-06-04T10:37:24;27.50;51.90
43087;DHT22;28708;52.224;6.924;2023-06-04T10:39:54;28.40;50.80
43087;DHT22;28708;52.224;6.924;2023-06-04T10:42:20;29.20;49.50
43087;DHT22;28708;52.224;6.924;2023-06-04T10:44:54;29.30;48.50
43087;DHT22;28708;52.224;6.924;2023-06-04T10:49:52;28.40;50.30
43087;DHT22;28708;52.224;6.924;2023-06-04T10:52:18;28.40;50.70
43087;DHT22;28708;52.224;6.924;2023-06-04T10:54:45;28.00;49.60
43087;DHT22;28708;52.224;6.924;2023-06-04T10:57:13;28.40;50.80
43087;DHT22;28708;52.224;6.924;2023-06-04T10:59:39;28.70;48.50
43087;DHT22;28708;52.224;6.924;2023-06-04T11:02:08;28.70;50.70
43087;DHT22;28708;52.224;6.924;2023-06-04T11:04:35;28.70;50.70
43087;DHT22;28708;52.224;6.924;2023-06-04T11:07:04;28.30;50.40
43087;DHT22;28708;52.224;6.924;2023-06-04T11:09:38;28.50;51.60
43087;DHT22;28708;52.224;6.924;2023-06-04T11:12:12;28.90;50.30
43087;DHT22;28708;52.224;6.924;2023-06-04T11:14:38;29.70;48.80
43087;DHT22;28708;52.224;6.924;2023-06-04T11:17:13;29.60;48.60
43087;DHT22;28708;52.224;6.924;2023-06-04T11:19:39;29.10;48.80
43087;DHT22;28708;52.224;6.924;2023-06-04T11:22:05;28.30;48.20
43087;DHT22;28708;52.224;6.924;2023-06-04T11:24:32;28.30;49.90
43087;DHT22;28708;52.224;6.924;2023-06-04T11:26:58;27.50;51.70
43087;DHT22;28708;52.224;6.924;2023-06-04T11:29:28;26.40;52.10
43087;DHT22;28708;52.224;6.924;2023-06-04T11:31:54;25.50;52.00
43087;DHT22;28708;52.224;6.924;2023-06-04T11:34:27;24.90;53.40
43087;DHT22;28708;52.224;6.924;2023-06-04T11:36:53;24.50;54.90
43087;DHT22;28708;52.224;6.924;2023-06-04T11:39:19;24.10;55.70
43087;DHT22;28708;52.224;6.924;2023-06-04T11:41:46;23.60;55.40
43087;DHT22;28708;52.224;6.924;2023-06-04T11:44:12;23.50;56.10
43087;DHT22;28708;52.224;6.924;2023-06-04T11:46:42;23.50;57.20
43087;DHT22;28708;52.224;6.924;2023-06-04T11:49:15;23.60;56.90
43087;DHT22;28708;52.224;6.924;2023-06-04T11:51:48;23.50;55.90
43087;DHT22;28708;52.224;6.924;2023-06-04T11:54:18;23.60;58.10
43087;DHT22;28708;52.224;6.924;2023-06-04T11:56:50;23.60;57.40
43087;DHT22;28708;52.224;6.924;2023-06-04T11:59:18;23.80;55.90
43087;DHT22;28708;52.224;6.924;2023-06-04T12:01:45;23.80;56.70
43087;DHT22;28708;52.224;6.924;2023-06-04T12:04:18;24.00;58.50
43087;DHT22;28708;52.224;6.924;2023-06-04T12:06:54;23.90;55.30
43087;DHT22;28708;52.224;6.924;2023-06-04T12:09:24;23.80;56.60
43087;DHT22;28708;52.224;6.924;2023-06-04T12:11:50;23.70;57.00
43087;DHT22;28708;52.224;6.924;2023-06-04T12:14:17;23.80;57.40
43087;DHT22;28708;52.224;6.924;2023-06-04T12:17:00;23.80;57.50
43087;DHT22;28708;52.224;6.924;2023-06-04T12:19:26;24.00;57.60
43087;DHT22;28708;52.224;6.924;2023-06-04T12:22:03;24.10;56.20
43087;DHT22;28708;52.224;6.924;2023-06-04T12:24:29;24.40;57.00
43087;DHT22;28708;52.224;6.924;2023-06-04T12:27:03;24.40;56.70
43087;DHT22;28708;52.224;6.924;2023-06-04T12:29:29;24.50;54.60
43087;DHT22;28708;52.224;6.924;2023-06-04T12:32:06;24.30;57.60
43087;DHT22;28708;52.224;6.924;2023-06-04T12:34:40;24.10;55.30
43087;DHT22;28708;52.224;6.924;2023-06-04T12:37:07;24.00;56.10
43087;DHT22;28708;52.224;6.924;2023-06-04T12:39:34;24.00;56.60
43087;DHT22;28708;52.224;6.924;2023-06-04T12:42:00;24.20;55.50
43087;DHT22;28708;52.224;6.924;2023-06-04T12:44:25;24.20;56.20
43087;DHT22;28708;52.224;6.924;2023-06-04T12:46:51;24.20;57.90
43087;DHT22;28708;52.224;6.924;2023-06-04T12:49:17;24.60;54.50
43087;DHT22;28708;52.224;6.924;2023-06-04T12:51:42;24.50;54.80
43087;DHT22;28708;52.224;6.924;2023-06-04T12:54:09;24.50;56.30
43087;DHT22;28708;52.224;6.924;2023-06-04T12:56:36;24.50;57.60
43087;DHT22;28708;52.224;6.924;2023-06-04T12:59:02;24.60;57.30
43087;DHT22;28708;52.224;6.924;2023-06-04T13:01:27;24.50;55.40
43087;DHT22;28708;52.224;6.924;2023-06-04T13:03:53;24.20;55.10
43087;DHT22;28708;52.224;6.924;2023-06-04T13:06:20;24.20;57.20
43087;DHT22;28708;52.224;6.924;2023-06-04T13:08:46;24.20;56.40
43087;DHT22;28708;52.224;6.924;2023-06-04T13:11:12;24.40;57.10
43087;DHT22;28708;52.224;6.924;2023-06-04T13:13:40;24.70;56.40
43087;DHT22;28708;52.224;6.924;2023-06-04T13:16:07;24.80;56.30
43087;DHT22;28708;52.224;6.924;2023-06-04T13:18:33;24.70;55.10
43087;DHT22;28708;52.224;6.924;2023-06-04T13:20:58;24.90;56.00
43087;DHT22;28708;52.224;6.924;2023-06-04T13:23:24;25.10;56.40
43087;DHT22;28708;52.224;6.924;2023-06-04T13:25:50;25.00;55.00
43087;DHT22;28708;52.224;6.924;2023-06-04T13:28:16;25.00;55.70
43087;DHT22;28708;52.224;6.924;2023-06-04T13:30:43;25.00;52.80
43087;DHT22;28708;52.224;6.924;2023-06-04T13:33:08;24.80;53.40
43087;DHT22;28708;52.224;6.924;2023-06-04T13:35:34;24.90;55.30
43087;DHT22;28708;52.224;6.924;2023-06-04T13:38:04;24.90;56.50
43087;DHT22;28708;52.224;6.924;2023-06-04T13:40:29;24.90;53.90
43087;DHT22;28708;52.224;6.924;2023-06-04T13:42:55;24.80;56.00
43087;DHT22;28708;52.224;6.924;2023-06-04T13:45:21;24.90;54.90
43087;DHT22;28708;52.224;6.924;2023-06-04T13:47:47;25.00;55.00
43087;DHT22;28708;52.224;6.924;2023-06-04T13:50:13;24.80;53.90
43087;DHT22;28708;52.224;6.924;2023-06-04T13:52:39;24.90;57.10
43087;DHT22;28708;52.224;6.924;2023-06-04T13:55:06;25.20;56.70
43087;DHT22;28708;52.224;6.924;2023-06-04T13:57:31;25.50;56.30
43087;DHT22;28708;52.224;6.924;2023-06-04T13:59:57;25.50;53.70
43087;DHT22;28708;52.224;6.924;2023-06-04T14:02:23;25.30;56.60
43087;DHT22;28708;52.224;6.924;2023-06-04T14:04:50;25.40;53.90
43087;DHT22;28708;52.224;6.924;2023-06-04T14:07:16;25.30;54.60
43087;DHT22;28708;52.224;6.924;2023-06-04T14:09:42;25.50;53.10
43087;DHT22;28708;52.224;6.924;2023-06-04T14:12:08;25.50;56.00
43087;DHT22;28708;52.224;6.924;2023-06-04T14:14:34;25.30;55.40
43087;DHT22;28708;52.224;6.924;2023-06-04T14:17:03;25.10;53.30
43087;DHT22;28708;52.224;6.924;2023-06-04T14:19:29;24.80;53.70
43087;DHT22;28708;52.224;6.924;2023-06-04T14:21:57;24.60;54.70
43087;DHT22;28708;52.224;6.924;2023-06-04T14:24:25;24.80;53.90
43087;DHT22;28708;52.224;6.924;2023-06-04T14:26:51;24.90;53.80
43087;DHT22;28708;52.224;6.924;2023-06-04T14:29:16;25.10;55.30
43087;DHT22;28708;52.224;6.924;2023-06-04T14:31:43;25.50;53.90
43087;DHT22;28708;52.224;6.924;2023-06-04T14:34:09;25.40;55.70
43087;DHT22;28708;52.224;6.924;2023-06-04T14:36:35;25.20;55.40
43087;DHT22;28708;52.224;6.924;2023-06-04T14:39:01;25.10;55.60
43087;DHT22;28708;52.224;6.924;2023-06-04T14:41:27;25.10;55.50
43087;DHT22;28708;52.224;6.924;2023-06-04T14:43:53;24.90;55.60
43087;DHT22;28708;52.224;6.924;2023-06-04T14:46:18;25.10;55.70
43087;DHT22;28708;52.224;6.924;2023-06-04T14:48:44;24.80;54.90
43087;DHT22;28708;52.224;6.924;2023-06-04T14:51:10;24.90;55.40
43087;DHT22;28708;52.224;6.924;2023-06-04T14:53:36;24.80;55.50
43087;DHT22;28708;52.224;6.924;2023-06-04T14:56:07;25.00;57.80
43087;DHT22;28708;52.224;6.924;2023-06-04T14:58:33;25.10;56.40
43087;DHT22;28708;52.224;6.924;2023-06-04T15:00:59;25.20;55.40
43087;DHT22;28708;52.224;6.924;2023-06-04T15:03:26;25.10;55.50
43087;DHT22;28708;52.224;6.924;2023-06-04T15:05:52;24.80;54.70
43087;DHT22;28708;52.224;6.924;2023-06-04T15:08:17;24.80;56.10
43087;DHT22;28708;52.224;6.924;2023-06-04T15:10:43;24.80;54.30
43087;DHT22;28708;52.224;6.924;2023-06-04T15:13:09;24.60;55.50
43087;DHT22;28708;52.224;6.924;2023-06-04T15:15:34;24.70;56.00
43087;DHT22;28708;52.224;6.924;2023-06-04T15:18:00;24.70;56.40
43087;DHT22;28708;52.224;6.924;2023-06-04T15:20:26;24.80;56.70
43087;DHT22;28708;52.224;6.924;2023-06-04T15:22:54;24.80;57.10
43087;DHT22;28708;52.224;6.924;2023-06-04T15:25:20;24.80;56.50
43087;DHT22;28708;52.224;6.924;2023-06-04T15:27:46;24.80;57.60
43087;DHT22;28708;52.224;6.924;2023-06-04T15:30:12;24.90;56.30
43087;DHT22;28708;52.224;6.924;2023-06-04T15:32:38;25.00;56.60
43087;DHT22;28708;52.224;6.924;2023-06-04T15:35:04;24.90;56.30
43087;DHT22;28708;52.224;6.924;2023-06-04T15:37:30;24.60;56.40
43087;DHT22;28708;52.224;6.924;2023-06-04T15:39:56;24.80;56.90
43087;DHT22;28708;52.224;6.924;2023-06-04T15:42:24;24.60;57.80
43087;DHT22;28708;52.224;6.924;2023-06-04T15:44:49;24.60;56.90